createdAt,value
2018-05-18T01:58:16.160Z,5.83
2018-05-18T02:00:46.531Z,6.27
2018-05-18T02:03:16.827Z,5.40
2018-05-18T02:05:46.993Z,5.17
2018-05-18T02:08:17.042Z,5.60
2018-05-18T02:10:47.481Z,5.10
2018-05-18T02:13:17.449Z,5.70
2018-05-18T02:15:47.397Z,5.93
2018-05-18T02:18:17.780Z,7.27
2018-05-18T02:20:48.652Z,5.00
2018-05-18T02:23:18.722Z,5.97
2018-05-18T02:25:49.206Z,5.37
2018-05-18T02:28:20.321Z,6.67
2018-05-18T02:30:50.449Z,7.23
2018-05-18T02:33:21.677Z,6.53
2018-05-18T02:35:51.802Z,9.87
2018-05-18T02:38:22.198Z,8.93
2018-05-18T02:40:52.687Z,11.17
2018-05-18T02:43:22.709Z,10.47
2018-05-18T02:45:53.031Z,10.20
2018-05-18T02:48:23.577Z,9.87
2018-05-18T02:50:53.797Z,10.63
2018-05-18T02:53:24.610Z,9.93
2018-05-18T02:55:56.857Z,9.77
2018-05-18T02:58:26.895Z,7.93
2018-05-18T03:00:58.556Z,8.37
2018-05-18T03:03:29.910Z,8.40
2018-05-18T03:05:59.928Z,8.20
2018-05-18T17:28:45.449Z,7.43
2018-05-18T17:31:15.842Z,7.70
2018-05-18T17:33:46.275Z,6.93
2018-05-18T17:36:16.536Z,6.87
2018-05-18T17:38:46.741Z,7.40
2018-05-18T17:41:17.211Z,7.77
2018-05-18T17:43:48.265Z,7.13
2018-05-18T17:46:19.261Z,7.47
2018-05-18T17:48:49.761Z,8.17
2018-05-18T17:51:19.924Z,7.50
2018-05-18T17:53:50.136Z,7.20
2018-05-18T17:56:20.610Z,7.27
2018-05-18T17:58:50.758Z,7.40
2018-05-18T18:01:20.947Z,7.47
2018-05-18T18:03:51.112Z,7.00
2018-05-18T18:06:21.246Z,7.37
2018-05-18T18:08:51.358Z,7.13
2018-05-18T18:11:23.723Z,6.67
2018-05-18T18:13:55.220Z,7.17
2018-05-18T18:16:27.149Z,7.00
2018-05-18T18:18:57.211Z,7.07
2018-05-18T18:21:27.497Z,7.43
2018-05-18T18:23:58.071Z,6.83
2018-05-18T18:26:28.245Z,6.50
2018-05-18T18:29:01.238Z,6.30
2018-05-18T18:31:33.687Z,7.63
2018-05-18T18:34:03.793Z,6.37
2018-05-18T18:36:34.289Z,6.93
2018-05-18T18:39:04.885Z,6.97
2018-05-18T18:41:35.933Z,6.90
2018-05-18T18:44:06.708Z,7.07
2018-05-18T18:46:36.922Z,6.57
2018-05-18T18:49:08.243Z,6.73
2018-05-18T18:51:39.503Z,6.80
2018-05-18T18:54:10.569Z,6.23
2018-05-18T18:56:41.755Z,6.93
2018-05-18T18:59:12.097Z,6.77
2018-05-18T19:01:42.251Z,5.67
2018-05-18T19:04:13.408Z,5.67
2018-05-18T19:06:44.234Z,5.70
2018-05-18T19:09:14.346Z,5.67
2018-05-18T19:11:44.742Z,5.70
2018-05-18T19:14:15.063Z,5.70
2018-05-18T19:16:45.271Z,6.07
2018-05-18T19:19:15.908Z,5.80
2018-05-18T19:21:46.872Z,6.40
2018-05-18T19:24:18.006Z,6.80
2018-05-18T19:26:48.484Z,5.97
2018-05-18T19:29:18.636Z,5.80
2018-05-18T19:31:48.732Z,5.13
2018-05-18T19:34:19.107Z,5.37
2018-05-18T19:36:49.879Z,5.27
2018-05-18T19:39:20.118Z,5.93
2018-05-18T19:41:50.886Z,5.83
2018-05-18T19:44:20.991Z,6.10
2018-05-18T19:46:51.328Z,6.40
2018-05-18T20:53:17.319Z,6.20
2018-05-18T20:55:49.390Z,5.50
2018-05-18T20:58:21.249Z,5.60
2018-05-18T21:00:52.170Z,5.77
2018-05-18T21:03:23.579Z,6.23
2018-05-18T21:05:55.376Z,6.10
2018-05-18T21:08:26.437Z,5.60
2018-05-18T21:10:57.946Z,7.07
2018-05-18T21:13:28.851Z,5.20
2018-05-18T21:15:59.520Z,6.00
2018-05-18T21:18:30.569Z,6.30
2018-05-18T21:21:02.497Z,5.67
2018-05-18T21:23:33.956Z,6.60
2018-05-18T21:26:07.312Z,5.97
2018-05-18T21:28:38.334Z,6.13
2018-05-18T21:31:10.682Z,6.20
2018-05-18T21:33:41.856Z,6.70
2018-05-18T21:36:12.745Z,5.83
2018-05-18T21:38:43.002Z,5.77
2018-05-18T21:41:19.376Z,6.03
2018-05-18T21:43:49.594Z,5.60
2018-05-18T21:46:20.499Z,5.83
2018-05-18T21:48:50.972Z,5.73
2018-05-18T21:51:21.888Z,5.80
2018-05-18T21:53:52.478Z,5.93
2018-05-18T21:56:22.633Z,6.17
2018-05-18T21:58:52.814Z,6.23
2018-05-18T22:01:24.630Z,6.47
2018-05-18T22:03:56.365Z,5.87
2018-05-18T22:06:26.741Z,6.57
2018-05-18T22:08:56.884Z,6.07
2018-05-18T22:11:28.733Z,5.80
2018-05-18T22:13:58.948Z,6.67
2018-05-18T22:16:28.989Z,6.13
2018-05-18T22:18:59.111Z,6.33
2018-05-18T22:21:29.328Z,5.70
2018-05-18T22:23:59.595Z,5.57
2018-05-18T22:26:30.460Z,6.53
2018-05-18T22:29:00.573Z,5.70
2018-05-18T22:31:30.617Z,6.03
2018-05-18T22:36:43.123Z,7.07
2018-05-18T22:39:13.281Z,6.47
2018-05-18T22:41:43.333Z,5.90
2018-05-18T22:44:14.493Z,5.70
2018-05-18T22:46:46.227Z,6.17
2018-05-18T22:49:16.314Z,5.73
2018-05-18T22:51:46.241Z,5.23
2018-05-18T22:54:16.130Z,6.30
2018-05-18T22:56:46.010Z,5.63
2018-05-18T22:59:17.781Z,6.47
2018-05-18T23:01:47.810Z,5.73
2018-05-18T23:04:18.898Z,5.13
2018-05-18T23:06:48.958Z,5.93
2018-05-18T23:09:20.877Z,6.17
2018-05-18T23:11:50.798Z,6.00
2018-05-18T23:14:20.864Z,5.90
2018-05-18T23:16:50.935Z,5.93
2018-05-18T23:19:21.215Z,5.90
2018-05-18T23:21:51.256Z,5.47
2018-05-18T23:24:21.480Z,5.90
2018-05-18T23:26:51.352Z,5.70
2018-05-18T23:29:21.367Z,6.47
2018-05-18T23:31:51.483Z,6.33
2018-05-18T23:34:22.099Z,5.67
2018-05-18T23:36:52.225Z,6.43
2018-05-18T23:39:23.152Z,6.07
2018-05-18T23:41:53.532Z,5.93
2018-05-18T23:44:23.625Z,5.70
2018-05-18T23:46:53.782Z,6.33
2018-05-18T23:49:24.126Z,5.90
2018-05-18T23:51:54.229Z,6.20
2018-05-18T23:54:24.305Z,6.00
2018-05-18T23:56:54.733Z,5.37
2018-05-18T23:59:24.684Z,6.60
